Saturday, November 18, 2017, 12:02 PM GMT
Back to Local

CZBF, Bathurst Airport Aviation Weather Reporting Station

Location: , , Canada Lat: 47.633
Local Time: 12:02 PM GMT (12:02 GMT) Lon: -65.75
Time Zone: GMT Elev: 193 ft

Show me the last for .
Show Decoded

2017-11-18 11:00 METAR CZBF 181100Z 30011G20KT 260V330 15SM FEW020 M04/M07 A2968 RMK SC1 SLP057 =
2017-11-18 10:00 METAR CZBF 181000Z 29018G27KT 15SM FEW020 M04/M07 A2966 RMK SC1 SLP048 =
2017-11-18 09:00 METAR CZBF 180900Z 29012G21KT 15SM SCT020 M04/M07 A2965 RMK SC4 SLP046 =
2017-11-18 08:00 METAR CZBF 180800Z 29018G29KT 15SM OVC020 M04/M07 A2963 RMK SC8 SLP040 =
2017-11-18 07:00 METAR CZBF 180700Z 29012G20KT 250V320 15SM SCT050 M03/M07 A2962 RMK SC3 SLP034 =
2017-11-18 06:00 METAR CZBF 180600Z 30014G23KT 270V340 15SM SCT050 M03/M06 A2959 RMK SC3 SLP026 =
2017-11-18 05:43 METAR CZBF 180543Z 30016G25KT 15SM SCT050 M03/M06 A2959 RMK SC3 SLP024 =
2017-11-18 05:00 METAR CZBF 180500Z 29014G26KT 270V340 15SM -SN OVC040 M02/M06 A2957 RMK SC8
                 SLP020 =
2017-11-18 04:00 METAR CZBF 180400Z 30016G22KT 270V330 15SM -SN OVC030 M02/M05 A2956 RMK SC8
                 SLP013 =
2017-11-18 03:00 METAR CZBF 180300Z 29015G29KT 270V340 15SM -SN OVC040 M01/M04 A2953 RMK SC8
                 SLP004 =
2017-11-18 02:00 METAR CZBF 180200Z 30015G22KT 10SM -SN OVC030 00/M02 A2950 RMK SC8 SLP995 =
2017-11-18 01:00 METAR CZBF 180100Z 31010G18KT 270V340 5SM -SN OVC030 01/M01 A2949 RMK SC8 SLP989
                 =
2017-11-18 00:52 METAR CZBF 180052Z 30009G20KT 6SM -SN OVC030 01/M01 A2948 RMK SC8 SLP988 =
2017-11-18 00:00 METAR CZBF 180000Z 31013G30KT 15SM OVC050 02/M01 A2946 RMK SC8 SLP981 =
2017-11-17 23:00 METAR CZBF 172300Z 32012G25KT 280V340 10SM OVC030 01/M01 A2944 RMK SC8 SLP972 =
2017-11-17 22:00 METAR CZBF 172200Z 32012G20KT 280V350 8SM FEW006 OVC035 02/M00 A2941 RMK SF1SC8
                 SF TR SLP965 =
2017-11-17 21:00 METAR CZBF 172100Z 31010G18KT 8SM OVC010 02/00 A2938 RMK SC8 SLP953 =
2017-11-17 20:00 METAR CZBF 172000Z 32009G17KT 290V360 4SM -RA BR OVC006 01/01 A2936 RMK NS8
                 SLP947 =
2017-11-17 19:45 METAR CZBF 171945Z 33009G16KT 4SM -RA OVC006 01/01 A2936 RMK NS8 SLP945 =
2017-11-17 19:00 METAR CZBF 171900Z 32009G18KT 300V360 2SM -SN OVC010 01/00 A2935 RMK NS8 SLP942
                 =
2017-11-17 18:00 METAR CZBF 171800Z 33007G21KT 290V360 1SM -SN VV008 01/00 A2934 RMK SN8 /S07/
                 SLP941 =
2017-11-17 17:00 METAR CZBF 171700Z 33009G19KT 1SM -SN VV010 01/00 A2935 RMK SN8 SLP944 =
2017-11-17 16:28 METAR CZBF 171628Z 33011G20KT 300V010 3/4SM -SN VV008 01/00 A2935 RMK SN8 SLP944
                 =
2017-11-17 16:00 METAR CZBF 171600Z 34011G19KT 290V010 3/4SM SN VV006 01/00 A2936 RMK SN8 /S06/
                 SLP947 =
2017-11-17 15:00 METAR CZBF 171500Z 33008G15KT 310V010 1/4SM +SN VV002 00/00 A2939 RMK SN8 /S04/
                 SLP957 =
2017-11-17 14:28 METAR CZBF 171428Z 34007KT 300V020 1/4SM +SN VV002 00/00 A2940 RMK SN8 SLP959 =
2017-11-17 14:00 METAR CZBF 171400Z 34008G15KT 300V360 1/2SM SN VV004 00/00 A2940 RMK SN8 /S02/
                 SLP961 =
2017-11-17 13:00 METAR CZBF 171300Z 01008G15KT 330V040 1SM -SN VV008 01/01 A2943 RMK SN8 SLP971 =

Support USWX by starting your Amazon purchase here.